createdAt,value
2022-10-14T00:00:20.238Z,85.14
2022-10-14T00:02:51.199Z,84.95
2022-10-14T00:05:21.330Z,85.19
2022-10-14T00:07:51.596Z,85.21
2022-10-14T00:10:21.423Z,84.38
2022-10-14T00:12:51.782Z,85.19
2022-10-14T00:15:22.104Z,85.30
2022-10-14T00:17:52.234Z,85.69
2022-10-14T00:20:22.401Z,85.40
2022-10-14T00:22:53.071Z,86.60
2022-10-14T00:25:24.686Z,87.24
2022-10-14T00:27:55.585Z,87.70
2022-10-14T00:30:25.958Z,87.88
2022-10-14T00:32:59.152Z,88.43
2022-10-14T00:35:28.883Z,87.58
2022-10-14T00:37:59.126Z,89.11
2022-10-14T00:40:29.571Z,89.25
2022-10-14T00:42:59.744Z,89.51
2022-10-14T00:45:29.818Z,90.01
2022-10-14T00:47:59.428Z,89.04
2022-10-14T00:50:29.453Z,90.43
2022-10-14T00:53:01.355Z,90.55
2022-10-14T00:55:32.909Z,90.79
2022-10-14T00:58:04.338Z,91.27
2022-10-14T01:00:34.314Z,89.97
2022-10-14T01:03:11.238Z,91.84
2022-10-14T01:06:11.870Z,92.17
2022-10-14T01:08:51.267Z,92.15
2022-10-14T01:11:47.480Z,92.18
2022-10-14T01:14:38.534Z,92.40
2022-10-14T01:17:24.330Z,92.65
2022-10-14T01:20:52.795Z,92.59
2022-10-14T01:23:38.636Z,92.79
2022-10-14T01:26:37.161Z,92.61
2022-10-14T01:29:23.684Z,93.01
2022-10-14T01:32:04.406Z,93.20
2022-10-14T01:34:44.420Z,93.63
2022-10-14T01:37:20.821Z,93.75
2022-10-14T01:39:57.090Z,93.91
2022-10-14T01:42:35.508Z,94.08
2022-10-14T01:45:14.935Z,93.94
2022-10-14T01:47:48.265Z,93.84
2022-10-14T01:50:22.467Z,93.86
2022-10-14T01:53:34.692Z,93.79
2022-10-14T01:56:07.670Z,93.91
2022-10-14T01:58:40.995Z,92.77
2022-10-14T02:01:12.048Z,92.52
2022-10-14T02:03:48.236Z,88.34
2022-10-14T02:06:30.340Z,87.93
2022-10-14T02:09:10.235Z,86.46
2022-10-14T02:11:55.684Z,86.74
2022-10-14T02:14:44.639Z,87.03
2022-10-14T02:17:20.272Z,87.30
2022-10-14T02:20:05.968Z,87.68
2022-10-14T02:22:44.597Z,87.73
2022-10-14T02:25:39.729Z,87.41
2022-10-14T02:28:16.705Z,87.57
2022-10-14T02:30:55.550Z,87.80
2022-10-14T02:33:34.510Z,87.35
2022-10-14T02:36:07.135Z,87.61
2022-10-14T02:38:39.767Z,87.82
2022-10-14T02:41:16.948Z,87.81
2022-10-14T02:43:47.928Z,87.89
2022-10-14T02:46:22.642Z,87.59
2022-10-14T02:48:53.246Z,87.94
2022-10-14T02:51:23.453Z,87.82
2022-10-14T02:53:54.014Z,87.43
2022-10-14T02:56:24.258Z,87.48
2022-10-14T02:58:54.453Z,87.66
2022-10-14T03:01:25.944Z,87.68
2022-10-14T03:03:57.068Z,87.66
2022-10-14T03:06:27.416Z,87.40
2022-10-14T03:09:00.853Z,87.65
2022-10-14T03:11:34.631Z,87.57
2022-10-14T03:14:08.860Z,87.57
2022-10-14T03:16:39.750Z,87.64
2022-10-14T03:19:09.423Z,87.52
2022-10-14T03:21:47.087Z,87.53
2022-10-14T03:24:21.841Z,87.75
2022-10-14T03:27:06.269Z,87.68
2022-10-14T03:29:36.892Z,87.90
2022-10-14T03:32:21.848Z,87.85
2022-10-14T03:35:15.204Z,87.68
2022-10-14T03:37:48.970Z,88.09
2022-10-14T03:40:24.193Z,88.09
2022-10-14T03:42:54.974Z,87.64
2022-10-14T03:45:25.288Z,87.96
2022-10-14T03:47:54.988Z,87.49
2022-10-14T03:50:25.521Z,87.66
2022-10-14T03:52:57.917Z,87.87
2022-10-14T03:55:35.014Z,87.79
2022-10-14T03:58:07.655Z,87.96
2022-10-14T04:00:38.293Z,88.52
2022-10-14T04:03:24.196Z,87.87
2022-10-14T04:05:54.603Z,88.00
2022-10-14T04:08:27.258Z,88.15
2022-10-14T04:11:18.484Z,88.27
2022-10-14T04:13:50.173Z,88.39
2022-10-14T04:16:21.498Z,88.08
2022-10-14T04:19:05.101Z,87.94
2022-10-14T04:21:36.282Z,87.97
2022-10-14T04:24:08.335Z,87.80
2022-10-14T04:26:44.816Z,88.09
2022-10-14T04:29:21.217Z,88.73
2022-10-14T04:32:00.099Z,87.51
2022-10-14T04:34:31.466Z,87.66
2022-10-14T04:37:01.922Z,87.84
2022-10-14T04:39:46.054Z,87.68
2022-10-14T04:42:16.328Z,88.47
2022-10-14T04:44:50.123Z,88.39
2022-10-14T04:47:26.337Z,87.54
2022-10-14T04:50:01.453Z,86.98
2022-10-14T04:52:34.457Z,87.37
2022-10-14T04:55:14.664Z,87.17
2022-10-14T04:57:46.100Z,86.93
2022-10-14T05:00:18.265Z,86.91
2022-10-14T05:02:55.985Z,87.07
2022-10-14T05:05:32.082Z,87.11
2022-10-14T05:08:05.157Z,87.29
2022-10-14T05:10:43.769Z,86.46
2022-10-14T05:13:20.875Z,86.48
2022-10-14T05:16:04.055Z,86.99
2022-10-14T05:18:35.374Z,86.86
2022-10-14T05:21:10.740Z,87.11
2022-10-14T05:23:56.981Z,87.00
2022-10-14T05:26:29.979Z,87.49
2022-10-14T05:29:03.185Z,87.27
2022-10-14T05:31:33.492Z,87.37
2022-10-14T05:34:10.908Z,87.46
2022-10-14T05:36:41.305Z,87.66
2022-10-14T05:39:12.926Z,87.33
2022-10-14T05:41:43.240Z,87.30
2022-10-14T05:44:13.327Z,87.28
2022-10-14T05:46:44.442Z,87.10
2022-10-14T05:49:14.361Z,87.37
2022-10-14T05:51:45.893Z,87.70
2022-10-14T05:54:22.597Z,87.43
2022-10-14T05:56:55.548Z,87.27
2022-10-14T05:59:27.690Z,87.37
2022-10-14T06:02:00.558Z,88.22
2022-10-14T06:04:33.599Z,87.23
2022-10-14T06:07:07.764Z,87.52
2022-10-14T06:09:42.862Z,87.99
2022-10-14T06:12:17.063Z,87.28
2022-10-14T06:14:51.366Z,87.74
2022-10-14T06:17:23.415Z,87.63
2022-10-14T06:19:56.510Z,87.27
2022-10-14T06:22:32.136Z,88.06
2022-10-14T06:25:04.415Z,87.18
2022-10-14T06:27:35.106Z,87.50
2022-10-14T06:30:06.026Z,87.37
2022-10-14T06:32:36.220Z,87.53
2022-10-14T06:35:07.540Z,88.41
2022-10-14T06:37:37.776Z,87.67
2022-10-14T06:40:08.535Z,87.66
2022-10-14T06:42:39.563Z,87.78
2022-10-14T06:45:10.889Z,87.96
2022-10-14T06:47:40.612Z,88.00
2022-10-14T06:50:10.539Z,88.29
2022-10-14T06:52:40.734Z,88.31
2022-10-14T06:55:13.717Z,88.03
2022-10-14T06:57:48.070Z,88.34
2022-10-14T07:00:19.082Z,88.34
2022-10-14T07:02:52.334Z,88.26
2022-10-14T07:05:26.205Z,88.18
2022-10-14T07:07:56.479Z,88.13
2022-10-14T07:10:29.637Z,88.50
2022-10-14T07:13:00.305Z,88.38
2022-10-14T07:15:35.314Z,88.91
2022-10-14T07:18:08.298Z,88.30
2022-10-14T07:20:40.648Z,87.67
2022-10-14T07:23:10.982Z,87.24
2022-10-14T07:25:41.448Z,88.39
2022-10-14T07:28:11.237Z,87.35
2022-10-14T07:30:41.484Z,87.42
2022-10-14T07:33:11.672Z,87.37
2022-10-14T07:35:42.177Z,87.81
2022-10-14T07:38:12.292Z,87.57
2022-10-14T07:40:42.456Z,87.76
2022-10-14T07:43:12.703Z,87.54
2022-10-14T07:45:45.313Z,87.69
2022-10-14T07:48:19.697Z,87.51
2022-10-14T07:50:58.167Z,87.47
2022-10-14T07:53:28.474Z,87.78
2022-10-14T07:55:59.958Z,87.70
2022-10-14T07:58:32.667Z,87.59
2022-10-14T08:01:02.918Z,87.84
2022-10-14T08:03:33.223Z,87.93
2022-10-14T08:06:05.179Z,87.78
2022-10-14T08:08:35.537Z,87.75
2022-10-14T08:11:09.481Z,87.44
2022-10-14T08:13:43.507Z,87.54
2022-10-14T08:16:17.223Z,87.67
2022-10-14T08:18:48.315Z,87.51
2022-10-14T08:21:20.111Z,88.13
2022-10-14T08:23:50.842Z,87.71
2022-10-14T08:26:25.915Z,87.86
2022-10-14T08:28:56.318Z,88.33
2022-10-14T08:31:26.145Z,87.69
2022-10-14T08:33:57.191Z,87.87
2022-10-14T08:36:28.410Z,87.88
2022-10-14T08:38:58.720Z,87.81
2022-10-14T08:41:57.809Z,87.66
2022-10-14T08:44:42.257Z,87.68
2022-10-14T08:47:17.996Z,87.79
2022-10-14T08:50:00.493Z,87.43
2022-10-14T08:52:40.814Z,88.18
2022-10-14T08:55:48.087Z,87.53
2022-10-14T08:58:57.485Z,87.71
2022-10-14T09:01:41.188Z,87.77
2022-10-14T09:04:16.424Z,87.85
2022-10-14T09:06:49.775Z,87.43
2022-10-14T09:09:26.109Z,87.86
2022-10-14T09:12:09.196Z,87.47
2022-10-14T09:14:44.638Z,87.84
2022-10-14T09:17:39.957Z,87.43
2022-10-14T09:20:20.783Z,87.69
2022-10-14T09:23:26.520Z,87.44
2022-10-14T09:26:01.598Z,87.55
2022-10-14T09:28:39.340Z,87.99
2022-10-14T09:31:13.797Z,87.85
2022-10-14T09:33:46.236Z,87.63
2022-10-14T09:36:22.408Z,87.54
2022-10-14T09:38:54.612Z,87.61
2022-10-14T09:41:32.976Z,87.46
2022-10-14T09:44:22.428Z,87.32
2022-10-14T09:47:05.427Z,87.66
2022-10-14T09:49:41.023Z,87.83
2022-10-14T09:52:23.250Z,87.33
2022-10-14T09:55:02.107Z,87.62
2022-10-14T09:57:33.270Z,87.69
2022-10-14T10:00:06.378Z,87.39
2022-10-14T10:02:48.145Z,87.71
2022-10-14T10:05:27.000Z,87.84
2022-10-14T10:08:15.363Z,87.85
2022-10-14T10:11:07.260Z,88.31
2022-10-14T10:13:46.614Z,87.94
2022-10-14T10:16:27.736Z,88.25
2022-10-14T10:18:58.696Z,87.85
2022-10-14T10:21:32.594Z,87.60
2022-10-14T10:24:05.399Z,87.92
2022-10-14T10:26:36.785Z,87.84
2022-10-14T10:29:07.695Z,87.99
2022-10-14T10:31:57.582Z,87.40
2022-10-14T10:34:48.612Z,87.22
2022-10-14T10:37:25.128Z,86.38
2022-10-14T10:40:42.670Z,85.68
2022-10-14T10:43:24.127Z,85.99
2022-10-14T10:46:03.572Z,85.12
2022-10-14T10:48:42.694Z,86.24
2022-10-14T10:51:16.878Z,85.15
2022-10-14T10:54:01.770Z,84.72
2022-10-14T10:56:48.229Z,84.70
2022-10-14T10:59:47.175Z,83.90
2022-10-14T11:02:23.936Z,83.57
2022-10-14T11:05:44.634Z,83.44
2022-10-14T11:08:50.257Z,83.00
2022-10-14T11:11:57.966Z,82.63
2022-10-14T11:14:48.366Z,83.11
2022-10-14T11:17:41.012Z,82.83
2022-10-14T11:20:30.584Z,82.50
2022-10-14T11:23:08.685Z,82.62
2022-10-14T11:26:02.259Z,82.67
2022-10-14T11:28:43.161Z,81.96
2022-10-14T11:31:37.628Z,82.02
2022-10-14T11:34:14.299Z,81.64
2022-10-14T11:37:05.755Z,81.37
2022-10-14T11:39:54.341Z,81.74
2022-10-14T11:42:39.887Z,81.18
2022-10-14T11:45:32.774Z,81.50
2022-10-14T11:48:31.018Z,80.98
2022-10-14T11:51:19.058Z,80.77
2022-10-14T11:54:06.177Z,80.29
2022-10-14T11:56:56.374Z,80.58
2022-10-14T11:59:45.695Z,80.15
2022-10-14T12:02:27.425Z,80.14
2022-10-14T12:05:14.488Z,79.87
2022-10-14T12:08:02.030Z,79.44
2022-10-14T12:10:56.757Z,80.29
2022-10-14T12:13:46.156Z,79.22
2022-10-14T12:16:19.684Z,78.14
2022-10-14T12:18:56.736Z,77.93
2022-10-14T12:21:46.795Z,77.71
2022-10-14T12:24:23.089Z,78.03
2022-10-14T12:26:59.043Z,77.99
2022-10-14T12:29:58.658Z,78.22
2022-10-14T12:32:33.220Z,78.20
2022-10-14T12:35:24.495Z,77.84
2022-10-14T12:40:33.152Z,76.76
2022-10-14T12:43:18.906Z,77.20
2022-10-14T12:45:54.961Z,77.13
2022-10-14T12:48:28.725Z,76.25
2022-10-14T12:51:23.874Z,76.91
2022-10-14T12:54:06.493Z,76.11
2022-10-14T12:56:59.926Z,76.07
2022-10-14T12:59:34.536Z,75.44
2022-10-14T13:02:46.175Z,75.71
2022-10-14T13:05:37.679Z,75.70
2022-10-14T13:08:26.187Z,75.87
2022-10-14T13:11:14.968Z,76.54
2022-10-14T13:13:52.882Z,75.45
2022-10-14T13:16:23.167Z,75.28
2022-10-14T13:18:56.325Z,74.99
2022-10-14T13:21:34.847Z,75.33
2022-10-14T13:24:09.668Z,75.77
2022-10-14T13:26:54.277Z,75.70
2022-10-14T13:29:38.277Z,74.39
2022-10-14T13:32:35.726Z,74.82
2022-10-14T13:35:28.985Z,74.65
2022-10-14T13:38:06.196Z,74.23
2022-10-14T13:40:51.596Z,75.04
2022-10-14T13:43:40.922Z,74.64
2022-10-14T13:46:17.971Z,74.71
2022-10-14T13:48:53.540Z,75.23
2022-10-14T13:51:48.146Z,74.22
2022-10-14T13:54:26.612Z,75.29
2022-10-14T13:58:00.016Z,74.40
2022-10-14T14:00:40.238Z,74.51
2022-10-14T14:03:34.372Z,74.53
2022-10-14T14:06:15.604Z,76.23
2022-10-14T14:08:53.410Z,75.32
2022-10-14T14:11:27.753Z,75.68
2022-10-14T14:14:06.146Z,74.54
2022-10-14T14:16:43.361Z,73.80
2022-10-14T14:19:28.565Z,73.82
2022-10-14T14:22:29.041Z,74.49
2022-10-14T14:25:40.228Z,74.53
2022-10-14T14:28:16.557Z,74.05
2022-10-14T14:30:57.563Z,75.94
2022-10-14T14:33:34.321Z,74.42
2022-10-14T14:36:18.073Z,74.58
2022-10-14T14:39:00.172Z,74.95
2022-10-14T14:41:32.162Z,76.02
2022-10-14T14:44:24.466Z,75.00
2022-10-14T14:46:59.844Z,74.81
2022-10-14T14:49:37.234Z,74.99
2022-10-14T14:52:08.227Z,75.25
2022-10-14T14:54:49.981Z,73.81
2022-10-14T14:57:22.637Z,75.91
2022-10-14T15:00:08.732Z,74.39
2022-10-14T15:02:39.055Z,75.36
2022-10-14T15:05:12.170Z,75.60
2022-10-14T15:07:45.569Z,75.48
2022-10-14T15:10:25.341Z,73.95
2022-10-14T15:12:58.318Z,74.11
2022-10-14T15:15:33.883Z,73.83
2022-10-14T15:18:23.273Z,74.15
2022-10-14T15:20:53.949Z,73.87
2022-10-14T15:23:50.397Z,73.82
2022-10-14T15:26:35.176Z,73.55
2022-10-14T15:32:17.828Z,73.66
2022-10-14T15:34:48.086Z,73.30
2022-10-14T15:37:18.276Z,74.09
2022-10-14T15:40:04.468Z,73.87
2022-10-14T15:42:34.857Z,73.20
2022-10-14T15:45:05.600Z,74.90
2022-10-14T15:47:36.408Z,74.52
2022-10-14T15:50:20.745Z,74.49
2022-10-14T15:52:56.296Z,74.63
2022-10-14T15:55:31.165Z,73.94
2022-10-14T15:58:01.830Z,74.68
2022-10-14T16:00:32.313Z,74.29
2022-10-14T16:03:06.523Z,75.76
2022-10-14T16:05:39.810Z,75.27
2022-10-14T16:08:18.115Z,73.94
2022-10-14T16:10:49.322Z,75.12
2022-10-14T16:13:19.589Z,74.38
2022-10-14T16:15:50.764Z,75.85
2022-10-14T16:18:22.911Z,74.50
2022-10-14T16:20:56.430Z,74.58
2022-10-14T16:23:31.034Z,73.98
2022-10-14T16:26:03.462Z,72.73
2022-10-14T16:28:33.910Z,73.47
2022-10-14T16:31:04.255Z,73.54
2022-10-14T16:33:33.983Z,73.93
2022-10-14T16:36:08.112Z,72.70
2022-10-14T16:38:38.578Z,73.73
2022-10-14T16:41:11.171Z,73.96
2022-10-14T16:43:41.421Z,73.72
2022-10-14T16:46:15.394Z,73.57
2022-10-14T16:48:46.116Z,73.22
2022-10-14T16:51:16.612Z,73.40
2022-10-14T16:53:47.935Z,72.73
2022-10-14T16:56:38.790Z,72.28
2022-10-14T16:59:11.451Z,72.71
2022-10-14T17:01:41.724Z,74.12
2022-10-14T17:04:18.784Z,74.43
2022-10-14T17:06:55.394Z,73.43
2022-10-14T17:09:28.554Z,73.77
2022-10-14T17:12:08.220Z,73.95
2022-10-14T17:14:41.582Z,72.84
2022-10-14T17:17:13.632Z,73.24
2022-10-14T17:19:44.274Z,74.00
2022-10-14T17:22:14.453Z,74.02
2022-10-14T17:24:44.643Z,73.90
2022-10-14T17:27:15.107Z,74.44
2022-10-14T17:29:45.725Z,74.49
2022-10-14T17:32:16.024Z,74.92
2022-10-14T17:34:45.762Z,75.02
2022-10-14T17:37:15.589Z,75.45
2022-10-14T17:39:45.602Z,74.90
2022-10-14T17:42:15.875Z,75.20
2022-10-14T17:44:48.588Z,75.33
2022-10-14T17:47:18.813Z,73.54
2022-10-14T17:49:49.308Z,74.15
2022-10-14T17:52:19.449Z,74.77
2022-10-14T17:54:49.639Z,74.49
2022-10-14T17:57:20.119Z,75.34
2022-10-14T17:59:50.880Z,75.52
2022-10-14T18:02:21.272Z,75.81
2022-10-14T18:04:52.064Z,75.65
2022-10-14T18:07:24.516Z,76.80
2022-10-14T18:09:55.017Z,76.12
2022-10-14T18:12:25.333Z,76.39
2022-10-14T18:14:55.407Z,76.65
2022-10-14T18:17:25.829Z,76.13
2022-10-14T18:19:56.233Z,77.13
2022-10-14T18:22:26.409Z,76.73
2022-10-14T18:24:56.774Z,77.12
2022-10-14T18:27:29.088Z,77.11
2022-10-14T18:29:59.366Z,77.85
2022-10-14T18:32:28.945Z,76.59
2022-10-14T18:34:59.149Z,77.64
2022-10-14T18:37:29.331Z,77.03
2022-10-14T18:39:59.600Z,76.70
2022-10-14T18:42:29.748Z,77.53
2022-10-14T18:45:00.543Z,76.11
2022-10-14T18:47:30.922Z,76.05
2022-10-14T18:52:36.287Z,75.52
2022-10-14T18:55:06.840Z,75.90
2022-10-14T18:57:38.048Z,75.97
2022-10-14T19:00:12.076Z,76.63
2022-10-14T19:02:44.497Z,76.50
2022-10-14T19:05:14.639Z,77.06
2022-10-14T19:07:44.815Z,78.15
2022-10-14T19:10:14.853Z,78.12
2022-10-14T19:12:45.646Z,77.51
2022-10-14T19:15:15.200Z,77.63
2022-10-14T19:17:47.736Z,77.70
2022-10-14T19:20:18.980Z,77.29
2022-10-14T19:22:52.979Z,78.12
2022-10-14T19:25:25.859Z,78.00
2022-10-14T19:27:56.003Z,78.23
2022-10-14T19:30:26.118Z,78.18
2022-10-14T19:32:56.102Z,78.62
2022-10-14T19:35:26.335Z,78.77
2022-10-14T19:37:56.515Z,79.62
2022-10-14T19:40:26.962Z,80.42
2022-10-14T19:42:57.227Z,81.35
2022-10-14T19:45:27.597Z,81.62
2022-10-14T19:47:57.250Z,81.69
2022-10-14T19:50:27.144Z,82.57
2022-10-14T19:52:57.393Z,83.33
2022-10-14T19:55:27.765Z,82.97
2022-10-14T19:57:59.228Z,83.25
2022-10-14T20:00:29.581Z,83.55
2022-10-14T20:02:59.751Z,83.12
2022-10-14T20:05:30.271Z,84.01
2022-10-14T20:08:00.771Z,84.08
2022-10-14T20:10:30.438Z,83.73
2022-10-14T20:13:00.245Z,83.98
2022-10-14T20:15:30.483Z,83.98
2022-10-14T20:18:00.831Z,84.02
2022-10-14T20:20:30.463Z,83.32
2022-10-14T20:23:00.440Z,83.87
2022-10-14T20:25:30.127Z,83.77
2022-10-14T20:27:59.969Z,83.91
2022-10-14T20:30:30.262Z,83.79
2022-10-14T20:32:59.901Z,83.45
2022-10-14T20:38:05.215Z,83.47
2022-10-14T20:40:38.840Z,84.03
2022-10-14T20:43:09.128Z,84.02
2022-10-14T20:45:39.345Z,84.08
2022-10-14T20:48:09.972Z,84.00
2022-10-14T20:50:40.193Z,83.54
2022-10-14T20:53:10.244Z,83.96
2022-10-14T20:55:40.408Z,82.91
2022-10-14T20:58:10.822Z,82.75
2022-10-14T21:00:40.485Z,81.59
2022-10-14T21:03:11.070Z,81.90
2022-10-14T21:05:41.884Z,81.56
2022-10-14T21:08:12.198Z,81.49
2022-10-14T21:10:41.805Z,81.98
2022-10-14T21:13:11.648Z,81.23
2022-10-14T21:15:41.613Z,81.71
2022-10-14T21:18:11.942Z,81.41
2022-10-14T21:20:42.275Z,81.39
2022-10-14T21:23:12.041Z,81.44
2022-10-14T21:25:42.504Z,81.74
2022-10-14T21:28:13.028Z,81.62
2022-10-14T21:30:43.479Z,81.71
2022-10-14T21:33:13.122Z,81.69
2022-10-14T21:35:43.205Z,81.94
2022-10-14T21:38:13.437Z,82.04
2022-10-14T21:40:43.724Z,81.99
2022-10-14T21:43:13.918Z,82.40
2022-10-14T21:45:44.090Z,82.17
2022-10-14T21:48:14.139Z,82.10
2022-10-14T21:50:44.282Z,81.86
2022-10-14T21:53:16.104Z,81.87
2022-10-14T21:55:53.344Z,81.87
2022-10-14T21:58:23.497Z,81.85
2022-10-14T22:00:53.721Z,81.86
2022-10-14T22:03:23.958Z,82.40
2022-10-14T22:08:46.594Z,81.53
2022-10-14T22:11:23.489Z,81.82
2022-10-14T22:13:54.950Z,82.42
2022-10-14T22:16:25.343Z,81.80
2022-10-14T22:18:55.032Z,81.85
2022-10-14T22:21:28.802Z,81.72
2022-10-14T22:26:54.338Z,81.89
2022-10-14T22:29:24.706Z,82.08
2022-10-14T22:31:54.745Z,81.99
2022-10-14T22:34:25.366Z,82.16
2022-10-14T22:36:55.730Z,82.36
2022-10-14T22:39:25.922Z,82.80
2022-10-14T22:41:56.133Z,82.60
2022-10-14T22:44:26.185Z,82.50
2022-10-14T22:46:56.463Z,82.69
2022-10-14T22:49:26.679Z,82.84
2022-10-14T22:51:58.325Z,82.91
2022-10-14T22:54:28.725Z,82.86
2022-10-14T22:56:58.953Z,82.73
2022-10-14T22:59:29.196Z,82.96
2022-10-14T23:01:59.444Z,83.11
2022-10-14T23:04:29.722Z,82.93
2022-10-14T23:07:04.436Z,83.04
2022-10-14T23:09:36.934Z,83.17
2022-10-14T23:12:07.529Z,83.05
2022-10-14T23:14:37.822Z,82.82
2022-10-14T23:17:07.981Z,82.19
2022-10-14T23:19:38.159Z,82.58
2022-10-14T23:22:08.400Z,82.26
2022-10-14T23:24:38.590Z,82.26
2022-10-14T23:27:08.603Z,81.96
2022-10-14T23:29:38.442Z,81.72
2022-10-14T23:32:08.593Z,81.81
2022-10-14T23:34:38.747Z,81.74
2022-10-14T23:37:08.803Z,82.46
2022-10-14T23:39:39.037Z,82.17
2022-10-14T23:42:09.179Z,81.96
2022-10-14T23:44:39.338Z,81.91
2022-10-14T23:47:09.826Z,81.88
2022-10-14T23:49:39.921Z,81.31
2022-10-14T23:52:10.906Z,81.34
2022-10-14T23:54:41.172Z,82.02
2022-10-14T23:57:11.435Z,81.97
2022-10-14T23:59:41.701Z,81.53
